createdAt,value
2023-02-06T00:07:30.325Z,-4.59
2023-02-06T00:17:55.079Z,-4.76
2023-02-06T00:28:50.613Z,-4.82
2023-02-06T00:39:15.165Z,-4.72
2023-02-06T00:50:07.400Z,-4.79
2023-02-06T01:00:34.154Z,-4.98
2023-02-06T01:11:09.192Z,-5.07
2023-02-06T01:21:23.889Z,-5.00
2023-02-06T01:31:50.909Z,-4.74
2023-02-06T01:42:22.309Z,-4.70
2023-02-06T01:52:37.456Z,-4.79
2023-02-06T02:03:05.747Z,-4.94
2023-02-06T02:13:32.700Z,-4.88
2023-02-06T02:23:36.696Z,-4.80
2023-02-06T02:33:59.952Z,-4.89
2023-02-06T02:44:30.955Z,-5.04
2023-02-06T02:54:56.277Z,-5.04
2023-02-06T03:05:14.125Z,-5.03
2023-02-06T03:15:36.154Z,-5.14
2023-02-06T03:26:00.929Z,-5.22
2023-02-06T03:36:08.782Z,-5.27
2023-02-06T03:46:52.972Z,-5.31
2023-02-06T03:57:10.441Z,-5.21
2023-02-06T04:07:56.912Z,-5.24
2023-02-06T04:18:25.217Z,-5.41
2023-02-06T04:28:52.513Z,-5.54
2023-02-06T04:39:06.113Z,-5.53
2023-02-06T04:49:39.765Z,-5.54
2023-02-06T04:59:57.241Z,-5.69
2023-02-06T05:10:27.481Z,-5.96
2023-02-06T05:21:22.199Z,-6.35
2023-02-06T05:31:45.135Z,-6.83
2023-02-06T05:41:51.969Z,-6.99
2023-02-06T05:52:16.635Z,-7.21
2023-02-06T06:02:32.959Z,-7.22
2023-02-06T06:12:59.362Z,-7.12
2023-02-06T06:23:22.574Z,-6.98
2023-02-06T06:33:33.608Z,-6.91
2023-02-06T06:43:45.458Z,-6.79
2023-02-06T06:53:59.489Z,-6.51
2023-02-06T07:04:10.166Z,-6.25
2023-02-06T07:14:19.576Z,-5.98
2023-02-06T07:24:26.518Z,-5.72
2023-02-06T07:34:33.267Z,-5.47
2023-02-06T07:44:52.034Z,-5.24
2023-02-06T07:55:16.097Z,-5.01
2023-02-06T08:05:20.774Z,-4.58
2023-02-06T08:15:36.905Z,-4.30
2023-02-06T08:26:17.750Z,-3.94
2023-02-06T08:36:32.335Z,-3.38
2023-02-06T08:46:45.134Z,-3.02
2023-02-06T08:56:56.885Z,-2.39
2023-02-06T09:07:01.009Z,-1.78
2023-02-06T09:17:07.912Z,-1.47
2023-02-06T09:27:12.072Z,-1.10
2023-02-06T09:37:28.846Z,-0.77
2023-02-06T09:47:47.561Z,-0.42
2023-02-06T09:58:21.086Z,-0.64
2023-02-06T10:08:51.927Z,-1.11
2023-02-06T10:19:14.979Z,-1.43
2023-02-06T10:29:28.570Z,-1.66
2023-02-06T10:40:23.631Z,-1.80
2023-02-06T10:50:40.271Z,-1.83
2023-02-06T11:00:55.966Z,-1.71
2023-02-06T11:11:55.855Z,-1.72
2023-02-06T11:22:47.709Z,-1.79
2023-02-06T11:33:17.395Z,-1.56
2023-02-06T11:44:03.306Z,-1.33
2023-02-06T11:54:19.455Z,-1.25
2023-02-06T12:04:52.497Z,-1.27
2023-02-06T12:16:01.756Z,-1.32
2023-02-06T12:26:39.283Z,-1.33
2023-02-06T12:37:31.936Z,-1.41
2023-02-06T12:48:02.690Z,-1.64
2023-02-06T12:58:25.767Z,-1.89
2023-02-06T13:08:51.353Z,-1.85
2023-02-06T13:19:20.360Z,-1.89
2023-02-06T13:29:46.462Z,-1.93
2023-02-06T13:40:46.703Z,-2.07
2023-02-06T13:51:49.207Z,-2.06
2023-02-06T14:02:39.354Z,-2.14
2023-02-06T14:13:34.617Z,-2.30
2023-02-06T14:24:26.718Z,-2.44
2023-02-06T14:35:32.214Z,-2.71
2023-02-06T14:46:15.122Z,-2.74
2023-02-06T14:56:40.531Z,-2.97
2023-02-06T15:07:31.589Z,-3.03
2023-02-06T15:17:37.001Z,-3.20
2023-02-06T15:28:21.813Z,-3.22
2023-02-06T15:38:43.882Z,-3.32
2023-02-06T15:48:58.707Z,-3.48
2023-02-06T15:59:25.744Z,-3.57
2023-02-06T16:09:55.668Z,-3.64
2023-02-06T16:20:43.156Z,-3.64
2023-02-06T16:31:14.551Z,-3.80
2023-02-06T16:41:27.963Z,-4.15
2023-02-06T16:51:40.959Z,-4.67
2023-02-06T17:01:45.703Z,-5.23
2023-02-06T17:11:59.270Z,-5.76
2023-02-06T17:22:07.474Z,-6.44
2023-02-06T17:32:12.047Z,-7.20
2023-02-06T17:42:26.151Z,-7.74
2023-02-06T17:52:34.233Z,-8.46
2023-02-06T18:02:47.455Z,-9.19
2023-02-06T18:12:56.575Z,-9.86
2023-02-06T18:23:10.708Z,-10.27
2023-02-06T18:33:17.148Z,-10.79
2023-02-06T18:43:45.420Z,-11.26
2023-02-06T18:53:57.834Z,-11.74
2023-02-06T19:04:04.435Z,-12.22
2023-02-06T19:14:30.694Z,-12.64
2023-02-06T19:24:44.618Z,-12.88
2023-02-06T19:34:55.288Z,-13.11
2023-02-06T19:45:10.797Z,-13.50
2023-02-06T19:55:42.658Z,-13.67
2023-02-06T20:06:27.224Z,-13.82
2023-02-06T20:16:37.955Z,-14.05
2023-02-06T20:27:03.399Z,-14.20
2023-02-06T20:37:42.204Z,-14.38
2023-02-06T20:48:19.645Z,-14.58
2023-02-06T20:59:07.103Z,-14.82
2023-02-06T21:09:37.591Z,-15.14
2023-02-06T21:19:54.164Z,-15.47
2023-02-06T21:30:02.418Z,-15.59
2023-02-06T21:40:45.222Z,-15.50
2023-02-06T21:51:27.676Z,-15.60
2023-02-06T22:01:41.587Z,-15.56
2023-02-06T22:11:57.261Z,-15.60
2023-02-06T22:22:43.020Z,-15.25
2023-02-06T22:33:47.737Z,-14.82
2023-02-06T22:45:01.126Z,-14.34
2023-02-06T22:55:09.800Z,-13.77
2023-02-06T23:06:07.378Z,-13.29
2023-02-06T23:16:55.791Z,-12.68
2023-02-06T23:27:44.004Z,-12.22
2023-02-06T23:39:11.049Z,-11.71
2023-02-06T23:50:08.729Z,-11.27
